sensor_id;sensor_type;location;lat;lon;timestamp;P1;durP1;ratioP1;P2;durP2;ratioP2
26303;SDS011;57113;48.680;8.890;2023-04-25T00:02:16;3.10;;;1.40;;
26303;SDS011;57113;48.680;8.890;2023-04-25T00:04:42;1.90;;;1.33;;
26303;SDS011;57113;48.680;8.890;2023-04-25T00:07:08;3.30;;;1.20;;
26303;SDS011;57113;48.680;8.890;2023-04-25T00:09:34;1.40;;;1.20;;
26303;SDS011;57113;48.680;8.890;2023-04-25T00:11:59;3.30;;;1.40;;
26303;SDS011;57113;48.680;8.890;2023-04-25T00:14:26;2.13;;;1.25;;
26303;SDS011;57113;48.680;8.890;2023-04-25T00:16:52;3.97;;;1.42;;
26303;SDS011;57113;48.680;8.890;2023-04-25T00:19:19;2.85;;;1.40;;
26303;SDS011;57113;48.680;8.890;2023-04-25T00:21:44;2.25;;;1.20;;
26303;SDS011;57113;48.680;8.890;2023-04-25T00:24:11;3.80;;;0.90;;
26303;SDS011;57113;48.680;8.890;2023-04-25T00:26:37;2.50;;;1.25;;
26303;SDS011;57113;48.680;8.890;2023-04-25T00:29:03;2.67;;;1.20;;
26303;SDS011;57113;48.680;8.890;2023-04-25T00:31:29;1.63;;;1.05;;
26303;SDS011;57113;48.680;8.890;2023-04-25T00:33:55;2.92;;;1.20;;
26303;SDS011;57113;48.680;8.890;2023-04-25T00:36:21;2.05;;;1.17;;
26303;SDS011;57113;48.680;8.890;2023-04-25T00:38:47;1.85;;;1.25;;
26303;SDS011;57113;48.680;8.890;2023-04-25T00:41:12;1.75;;;1.08;;
26303;SDS011;57113;48.680;8.890;2023-04-25T00:43:38;3.72;;;1.27;;
26303;SDS011;57113;48.680;8.890;2023-04-25T00:46:05;1.75;;;1.10;;
26303;SDS011;57113;48.680;8.890;2023-04-25T00:48:30;3.33;;;1.20;;
26303;SDS011;57113;48.680;8.890;2023-04-25T00:50:57;2.45;;;1.30;;
26303;SDS011;57113;48.680;8.890;2023-04-25T00:53:24;2.97;;;1.30;;
26303;SDS011;57113;48.680;8.890;2023-04-25T00:55:52;2.38;;;1.23;;
26303;SDS011;57113;48.680;8.890;2023-04-25T00:58:18;1.73;;;1.10;;
26303;SDS011;57113;48.680;8.890;2023-04-25T01:00:45;2.92;;;1.33;;
26303;SDS011;57113;48.680;8.890;2023-04-25T01:03:15;1.50;;;1.08;;
26303;SDS011;57113;48.680;8.890;2023-04-25T01:05:42;2.10;;;1.30;;
26303;SDS011;57113;48.680;8.890;2023-04-25T01:08:08;1.65;;;1.02;;
26303;SDS011;57113;48.680;8.890;2023-04-25T01:10:34;3.03;;;1.30;;
26303;SDS011;57113;48.680;8.890;2023-04-25T01:13:00;4.13;;;1.30;;
26303;SDS011;57113;48.680;8.890;2023-04-25T01:15:25;1.63;;;1.10;;
26303;SDS011;57113;48.680;8.890;2023-04-25T01:17:51;2.80;;;1.00;;
26303;SDS011;57113;48.680;8.890;2023-04-25T01:20:18;2.63;;;0.98;;
26303;SDS011;57113;48.680;8.890;2023-04-25T01:22:48;2.25;;;1.20;;
26303;SDS011;57113;48.680;8.890;2023-04-25T01:25:14;2.38;;;1.75;;
26303;SDS011;57113;48.680;8.890;2023-04-25T01:27:40;2.00;;;1.20;;
26303;SDS011;57113;48.680;8.890;2023-04-25T01:30:06;1.48;;;0.90;;
26303;SDS011;57113;48.680;8.890;2023-04-25T01:32:33;2.92;;;1.27;;
26303;SDS011;57113;48.680;8.890;2023-04-25T01:35:05;3.83;;;1.40;;
26303;SDS011;57113;48.680;8.890;2023-04-25T01:37:41;3.33;;;1.08;;
26303;SDS011;57113;48.680;8.890;2023-04-25T01:40:08;3.50;;;1.30;;
26303;SDS011;57113;48.680;8.890;2023-04-25T01:42:37;3.22;;;1.10;;
26303;SDS011;57113;48.680;8.890;2023-04-25T01:45:04;2.80;;;1.15;;
26303;SDS011;57113;48.680;8.890;2023-04-25T01:47:31;2.40;;;1.30;;
26303;SDS011;57113;48.680;8.890;2023-04-25T01:49:57;1.83;;;1.02;;
26303;SDS011;57113;48.680;8.890;2023-04-25T01:52:22;1.70;;;1.17;;
26303;SDS011;57113;48.680;8.890;2023-04-25T01:54:48;1.70;;;1.13;;
26303;SDS011;57113;48.680;8.890;2023-04-25T01:57:15;3.33;;;1.20;;
26303;SDS011;57113;48.680;8.890;2023-04-25T01:59:41;1.73;;;0.90;;
26303;SDS011;57113;48.680;8.890;2023-04-25T02:02:08;1.33;;;0.95;;
26303;SDS011;57113;48.680;8.890;2023-04-25T02:04:33;2.45;;;1.25;;
26303;SDS011;57113;48.680;8.890;2023-04-25T02:06:59;2.33;;;1.10;;
26303;SDS011;57113;48.680;8.890;2023-04-25T02:09:25;1.65;;;0.80;;
26303;SDS011;57113;48.680;8.890;2023-04-25T02:11:50;1.63;;;1.10;;
26303;SDS011;57113;48.680;8.890;2023-04-25T02:14:18;2.65;;;1.10;;
26303;SDS011;57113;48.680;8.890;2023-04-25T02:16:43;2.83;;;1.10;;
26303;SDS011;57113;48.680;8.890;2023-04-25T02:19:09;2.28;;;1.20;;
26303;SDS011;57113;48.680;8.890;2023-04-25T02:21:35;2.60;;;1.20;;
26303;SDS011;57113;48.680;8.890;2023-04-25T02:24:01;2.00;;;0.95;;
26303;SDS011;57113;48.680;8.890;2023-04-25T02:26:28;1.17;;;0.85;;
26303;SDS011;57113;48.680;8.890;2023-04-25T02:28:53;2.10;;;1.30;;
26303;SDS011;57113;48.680;8.890;2023-04-25T02:31:19;3.88;;;1.10;;
26303;SDS011;57113;48.680;8.890;2023-04-25T02:33:45;2.00;;;1.10;;
26303;SDS011;57113;48.680;8.890;2023-04-25T02:36:11;1.40;;;0.98;;
26303;SDS011;57113;48.680;8.890;2023-04-25T02:38:37;2.42;;;1.17;;
26303;SDS011;57113;48.680;8.890;2023-04-25T02:41:03;1.75;;;1.00;;
26303;SDS011;57113;48.680;8.890;2023-04-25T02:43:28;1.98;;;1.20;;
26303;SDS011;57113;48.680;8.890;2023-04-25T02:45:54;2.15;;;1.08;;
26303;SDS011;57113;48.680;8.890;2023-04-25T02:48:20;2.17;;;1.00;;
26303;SDS011;57113;48.680;8.890;2023-04-25T02:50:46;3.15;;;1.20;;
26303;SDS011;57113;48.680;8.890;2023-04-25T02:53:11;2.17;;;1.20;;
26303;SDS011;57113;48.680;8.890;2023-04-25T02:55:37;2.17;;;0.98;;
26303;SDS011;57113;48.680;8.890;2023-04-25T02:58:03;1.40;;;1.02;;
26303;SDS011;57113;48.680;8.890;2023-04-25T03:00:29;2.05;;;1.00;;
26303;SDS011;57113;48.680;8.890;2023-04-25T03:02:54;1.58;;;1.08;;
26303;SDS011;57113;48.680;8.890;2023-04-25T03:05:20;1.85;;;1.30;;
26303;SDS011;57113;48.680;8.890;2023-04-25T03:07:46;2.97;;;1.15;;
26303;SDS011;57113;48.680;8.890;2023-04-25T03:10:11;3.22;;;1.10;;
26303;SDS011;57113;48.680;8.890;2023-04-25T03:12:37;1.10;;;0.85;;
26303;SDS011;57113;48.680;8.890;2023-04-25T03:15:03;2.17;;;1.00;;
26303;SDS011;57113;48.680;8.890;2023-04-25T03:17:29;5.65;;;1.02;;
26303;SDS011;57113;48.680;8.890;2023-04-25T03:19:55;2.33;;;1.20;;
26303;SDS011;57113;48.680;8.890;2023-04-25T03:22:21;3.13;;;1.13;;
26303;SDS011;57113;48.680;8.890;2023-04-25T03:24:47;4.20;;;1.05;;
26303;SDS011;57113;48.680;8.890;2023-04-25T03:27:12;1.70;;;1.00;;
26303;SDS011;57113;48.680;8.890;2023-04-25T03:29:38;1.92;;;0.90;;
26303;SDS011;57113;48.680;8.890;2023-04-25T03:32:05;1.40;;;1.13;;
26303;SDS011;57113;48.680;8.890;2023-04-25T03:34:31;2.55;;;1.10;;
26303;SDS011;57113;48.680;8.890;2023-04-25T03:36:56;5.53;;;1.30;;
26303;SDS011;57113;48.680;8.890;2023-04-25T03:39:22;2.10;;;1.20;;
26303;SDS011;57113;48.680;8.890;2023-04-25T03:41:48;2.72;;;1.23;;
26303;SDS011;57113;48.680;8.890;2023-04-25T03:44:13;2.20;;;1.20;;
26303;SDS011;57113;48.680;8.890;2023-04-25T03:46:39;3.33;;;1.20;;
26303;SDS011;57113;48.680;8.890;2023-04-25T03:49:05;2.00;;;1.25;;
26303;SDS011;57113;48.680;8.890;2023-04-25T03:51:30;2.75;;;1.30;;
26303;SDS011;57113;48.680;8.890;2023-04-25T03:53:56;6.22;;;1.33;;
26303;SDS011;57113;48.680;8.890;2023-04-25T03:56:22;1.45;;;1.08;;
26303;SDS011;57113;48.680;8.890;2023-04-25T03:58:47;3.20;;;1.42;;
26303;SDS011;57113;48.680;8.890;2023-04-25T04:01:13;1.95;;;1.17;;
26303;SDS011;57113;48.680;8.890;2023-04-25T04:03:39;1.98;;;1.20;;
26303;SDS011;57113;48.680;8.890;2023-04-25T04:06:05;1.92;;;1.10;;
26303;SDS011;57113;48.680;8.890;2023-04-25T04:08:31;2.30;;;1.42;;
26303;SDS011;57113;48.680;8.890;2023-04-25T04:10:58;1.85;;;1.17;;
26303;SDS011;57113;48.680;8.890;2023-04-25T04:13:25;19.73;;;2.53;;
26303;SDS011;57113;48.680;8.890;2023-04-25T04:15:56;4.60;;;1.58;;
26303;SDS011;57113;48.680;8.890;2023-04-25T04:18:23;2.42;;;1.40;;
26303;SDS011;57113;48.680;8.890;2023-04-25T04:20:48;3.75;;;1.55;;
26303;SDS011;57113;48.680;8.890;2023-04-25T04:23:15;7.13;;;1.58;;
26303;SDS011;57113;48.680;8.890;2023-04-25T04:25:40;4.53;;;1.40;;
26303;SDS011;57113;48.680;8.890;2023-04-25T04:28:06;3.90;;;1.42;;
26303;SDS011;57113;48.680;8.890;2023-04-25T04:30:32;3.40;;;1.50;;
26303;SDS011;57113;48.680;8.890;2023-04-25T04:33:01;5.32;;;1.80;;
26303;SDS011;57113;48.680;8.890;2023-04-25T04:35:27;3.22;;;1.70;;
26303;SDS011;57113;48.680;8.890;2023-04-25T04:37:53;4.95;;;1.50;;
26303;SDS011;57113;48.680;8.890;2023-04-25T04:40:19;2.28;;;1.48;;
26303;SDS011;57113;48.680;8.890;2023-04-25T04:42:46;3.92;;;1.50;;
26303;SDS011;57113;48.680;8.890;2023-04-25T04:45:13;4.25;;;2.05;;
26303;SDS011;57113;48.680;8.890;2023-04-25T04:47:39;4.18;;;2.00;;
26303;SDS011;57113;48.680;8.890;2023-04-25T04:50:08;4.50;;;2.00;;
26303;SDS011;57113;48.680;8.890;2023-04-25T04:52:35;5.45;;;1.92;;
26303;SDS011;57113;48.680;8.890;2023-04-25T04:55:02;4.90;;;1.67;;
26303;SDS011;57113;48.680;8.890;2023-04-25T04:57:28;4.45;;;1.65;;
26303;SDS011;57113;48.680;8.890;2023-04-25T04:59:54;5.68;;;1.25;;
26303;SDS011;57113;48.680;8.890;2023-04-25T05:02:20;3.20;;;1.63;;
26303;SDS011;57113;48.680;8.890;2023-04-25T05:04:46;4.72;;;1.60;;
26303;SDS011;57113;48.680;8.890;2023-04-25T05:07:12;3.20;;;1.60;;
26303;SDS011;57113;48.680;8.890;2023-04-25T05:09:38;3.88;;;1.75;;
26303;SDS011;57113;48.680;8.890;2023-04-25T05:12:04;5.10;;;1.70;;
26303;SDS011;57113;48.680;8.890;2023-04-25T05:14:30;4.03;;;1.27;;
26303;SDS011;57113;48.680;8.890;2023-04-25T05:16:56;2.90;;;1.50;;
26303;SDS011;57113;48.680;8.890;2023-04-25T05:19:23;2.28;;;1.50;;
26303;SDS011;57113;48.680;8.890;2023-04-25T05:21:49;4.20;;;1.58;;
26303;SDS011;57113;48.680;8.890;2023-04-25T05:24:14;2.58;;;1.88;;
26303;SDS011;57113;48.680;8.890;2023-04-25T05:26:40;4.72;;;1.67;;
26303;SDS011;57113;48.680;8.890;2023-04-25T05:29:06;3.85;;;1.70;;
26303;SDS011;57113;48.680;8.890;2023-04-25T05:31:32;3.30;;;1.80;;
26303;SDS011;57113;48.680;8.890;2023-04-25T05:33:58;3.88;;;1.42;;
26303;SDS011;57113;48.680;8.890;2023-04-25T05:36:23;2.40;;;1.50;;
26303;SDS011;57113;48.680;8.890;2023-04-25T05:38:49;4.70;;;1.23;;
26303;SDS011;57113;48.680;8.890;2023-04-25T05:41:15;3.92;;;1.70;;
26303;SDS011;57113;48.680;8.890;2023-04-25T05:43:41;4.70;;;1.45;;
26303;SDS011;57113;48.680;8.890;2023-04-25T05:46:11;3.88;;;1.50;;
26303;SDS011;57113;48.680;8.890;2023-04-25T05:48:37;4.53;;;1.42;;
26303;SDS011;57113;48.680;8.890;2023-04-25T05:51:04;2.70;;;1.40;;
26303;SDS011;57113;48.680;8.890;2023-04-25T05:53:30;5.22;;;1.70;;
26303;SDS011;57113;48.680;8.890;2023-04-25T05:55:58;2.95;;;1.63;;
26303;SDS011;57113;48.680;8.890;2023-04-25T05:58:24;2.97;;;1.60;;
26303;SDS011;57113;48.680;8.890;2023-04-25T06:00:49;4.35;;;1.55;;
26303;SDS011;57113;48.680;8.890;2023-04-25T06:03:15;3.85;;;1.50;;
26303;SDS011;57113;48.680;8.890;2023-04-25T06:05:41;2.72;;;1.42;;
26303;SDS011;57113;48.680;8.890;2023-04-25T06:08:07;3.22;;;1.38;;
26303;SDS011;57113;48.680;8.890;2023-04-25T06:10:33;3.97;;;1.60;;
26303;SDS011;57113;48.680;8.890;2023-04-25T06:12:59;5.78;;;2.10;;
26303;SDS011;57113;48.680;8.890;2023-04-25T06:15:25;4.88;;;1.40;;
26303;SDS011;57113;48.680;8.890;2023-04-25T06:17:51;2.72;;;1.45;;
26303;SDS011;57113;48.680;8.890;2023-04-25T06:20:17;3.28;;;1.70;;
26303;SDS011;57113;48.680;8.890;2023-04-25T06:22:43;3.42;;;1.63;;
26303;SDS011;57113;48.680;8.890;2023-04-25T06:25:08;4.60;;;1.63;;
26303;SDS011;57113;48.680;8.890;2023-04-25T06:27:34;3.05;;;1.40;;
26303;SDS011;57113;48.680;8.890;2023-04-25T06:30:00;3.85;;;1.60;;
26303;SDS011;57113;48.680;8.890;2023-04-25T06:32:25;4.90;;;1.67;;
26303;SDS011;57113;48.680;8.890;2023-04-25T06:34:52;2.95;;;1.60;;
26303;SDS011;57113;48.680;8.890;2023-04-25T06:37:18;3.60;;;1.40;;
26303;SDS011;57113;48.680;8.890;2023-04-25T06:39:44;1.90;;;1.35;;
26303;SDS011;57113;48.680;8.890;2023-04-25T06:42:09;2.00;;;1.40;;
26303;SDS011;57113;48.680;8.890;2023-04-25T06:44:35;4.32;;;1.63;;
26303;SDS011;57113;48.680;8.890;2023-04-25T06:47:01;7.43;;;1.50;;
26303;SDS011;57113;48.680;8.890;2023-04-25T06:49:26;4.32;;;1.70;;
26303;SDS011;57113;48.680;8.890;2023-04-25T06:51:52;4.68;;;1.83;;
26303;SDS011;57113;48.680;8.890;2023-04-25T06:54:18;3.85;;;1.90;;
26303;SDS011;57113;48.680;8.890;2023-04-25T06:56:43;2.45;;;1.63;;
26303;SDS011;57113;48.680;8.890;2023-04-25T06:59:09;4.20;;;2.05;;
26303;SDS011;57113;48.680;8.890;2023-04-25T07:01:35;3.05;;;1.75;;
26303;SDS011;57113;48.680;8.890;2023-04-25T07:04:00;3.35;;;1.70;;
26303;SDS011;57113;48.680;8.890;2023-04-25T07:06:26;3.13;;;1.67;;
26303;SDS011;57113;48.680;8.890;2023-04-25T07:08:54;4.00;;;1.60;;
26303;SDS011;57113;48.680;8.890;2023-04-25T07:11:20;2.72;;;1.50;;
26303;SDS011;57113;48.680;8.890;2023-04-25T07:13:46;5.00;;;2.00;;
26303;SDS011;57113;48.680;8.890;2023-04-25T07:16:11;4.88;;;1.85;;
26303;SDS011;57113;48.680;8.890;2023-04-25T07:18:38;3.60;;;1.70;;
26303;SDS011;57113;48.680;8.890;2023-04-25T07:21:03;3.80;;;2.10;;
26303;SDS011;57113;48.680;8.890;2023-04-25T07:23:31;2.28;;;1.52;;
26303;SDS011;57113;48.680;8.890;2023-04-25T07:25:57;3.55;;;2.10;;
26303;SDS011;57113;48.680;8.890;2023-04-25T07:28:23;4.03;;;2.03;;
26303;SDS011;57113;48.680;8.890;2023-04-25T07:30:48;1.83;;;1.50;;
26303;SDS011;57113;48.680;8.890;2023-04-25T07:33:14;3.85;;;1.55;;
26303;SDS011;57113;48.680;8.890;2023-04-25T07:35:40;3.63;;;1.70;;
26303;SDS011;57113;48.680;8.890;2023-04-25T07:38:05;3.22;;;1.65;;
26303;SDS011;57113;48.680;8.890;2023-04-25T07:40:31;2.90;;;1.77;;
26303;SDS011;57113;48.680;8.890;2023-04-25T07:42:57;3.95;;;1.90;;
26303;SDS011;57113;48.680;8.890;2023-04-25T07:45:23;3.58;;;1.80;;
26303;SDS011;57113;48.680;8.890;2023-04-25T07:47:49;2.28;;;1.67;;
26303;SDS011;57113;48.680;8.890;2023-04-25T07:50:15;3.40;;;1.90;;
26303;SDS011;57113;48.680;8.890;2023-04-25T07:52:40;3.30;;;1.90;;
26303;SDS011;57113;48.680;8.890;2023-04-25T07:55:06;3.20;;;1.90;;
26303;SDS011;57113;48.680;8.890;2023-04-25T07:57:32;4.03;;;2.13;;
26303;SDS011;57113;48.680;8.890;2023-04-25T07:59:57;3.97;;;2.00;;
26303;SDS011;57113;48.680;8.890;2023-04-25T08:02:23;7.05;;;2.22;;
26303;SDS011;57113;48.680;8.890;2023-04-25T08:04:51;2.45;;;2.03;;
26303;SDS011;57113;48.680;8.890;2023-04-25T08:07:16;3.10;;;2.10;;
26303;SDS011;57113;48.680;8.890;2023-04-25T08:09:42;4.82;;;2.30;;
26303;SDS011;57113;48.680;8.890;2023-04-25T08:12:07;6.07;;;2.33;;
26303;SDS011;57113;48.680;8.890;2023-04-25T08:14:33;3.85;;;2.55;;
26303;SDS011;57113;48.680;8.890;2023-04-25T08:17:02;3.08;;;2.08;;
26303;SDS011;57113;48.680;8.890;2023-04-25T08:19:28;2.92;;;2.03;;
26303;SDS011;57113;48.680;8.890;2023-04-25T08:21:55;3.25;;;2.05;;
26303;SDS011;57113;48.680;8.890;2023-04-25T08:24:21;4.60;;;2.63;;
26303;SDS011;57113;48.680;8.890;2023-04-25T08:26:47;3.58;;;2.17;;
26303;SDS011;57113;48.680;8.890;2023-04-25T08:29:13;3.83;;;2.22;;
26303;SDS011;57113;48.680;8.890;2023-04-25T08:31:39;4.63;;;2.45;;
26303;SDS011;57113;48.680;8.890;2023-04-25T08:34:06;3.53;;;2.17;;
26303;SDS011;57113;48.680;8.890;2023-04-25T08:36:31;2.95;;;2.10;;
26303;SDS011;57113;48.680;8.890;2023-04-25T08:38:58;2.95;;;2.00;;
26303;SDS011;57113;48.680;8.890;2023-04-25T08:41:23;3.08;;;2.20;;
26303;SDS011;57113;48.680;8.890;2023-04-25T08:43:50;4.55;;;2.17;;
26303;SDS011;57113;48.680;8.890;2023-04-25T08:46:18;3.28;;;2.58;;
26303;SDS011;57113;48.680;8.890;2023-04-25T08:48:45;3.85;;;2.10;;
26303;SDS011;57113;48.680;8.890;2023-04-25T08:51:31;3.35;;;2.08;;
26303;SDS011;57113;48.680;8.890;2023-04-25T08:53:58;3.20;;;2.22;;
26303;SDS011;57113;48.680;8.890;2023-04-25T08:56:41;4.93;;;2.17;;
26303;SDS011;57113;48.680;8.890;2023-04-25T08:59:11;4.35;;;2.50;;
26303;SDS011;57113;48.680;8.890;2023-04-25T09:01:36;7.07;;;2.55;;
26303;SDS011;57113;48.680;8.890;2023-04-25T09:04:02;3.28;;;2.25;;
26303;SDS011;57113;48.680;8.890;2023-04-25T09:06:28;2.67;;;1.90;;
26303;SDS011;57113;48.680;8.890;2023-04-25T09:09:05;3.28;;;2.00;;
26303;SDS011;57113;48.680;8.890;2023-04-25T09:11:32;4.03;;;1.80;;
26303;SDS011;57113;48.680;8.890;2023-04-25T09:14:11;2.60;;;1.50;;
26303;SDS011;57113;48.680;8.890;2023-04-25T09:16:57;2.25;;;1.50;;
26303;SDS011;57113;48.680;8.890;2023-04-25T09:21:57;2.80;;;2.00;;
26303;SDS011;57113;48.680;8.890;2023-04-25T09:27:19;2.58;;;1.52;;
26303;SDS011;57113;48.680;8.890;2023-04-25T09:29:47;3.05;;;1.58;;
26303;SDS011;57113;48.680;8.890;2023-04-25T09:32:15;2.25;;;1.58;;
26303;SDS011;57113;48.680;8.890;2023-04-25T09:34:42;2.90;;;1.30;;
26303;SDS011;57113;48.680;8.890;2023-04-25T09:37:09;1.27;;;0.50;;
26303;SDS011;57113;48.680;8.890;2023-04-25T09:39:38;0.50;;;0.50;;
26303;SDS011;57113;48.680;8.890;2023-04-25T09:42:04;0.57;;;0.50;;
26303;SDS011;57113;48.680;8.890;2023-04-25T09:44:31;0.82;;;0.52;;
26303;SDS011;57113;48.680;8.890;2023-04-25T09:46:57;1.30;;;0.70;;
26303;SDS011;57113;48.680;8.890;2023-04-25T09:49:24;1.88;;;0.60;;
26303;SDS011;57113;48.680;8.890;2023-04-25T09:51:55;1.23;;;0.73;;
26303;SDS011;57113;48.680;8.890;2023-04-25T09:54:25;0.73;;;0.60;;
26303;SDS011;57113;48.680;8.890;2023-04-25T09:56:51;0.80;;;0.52;;
26303;SDS011;57113;48.680;8.890;2023-04-25T09:59:21;1.65;;;0.68;;
26303;SDS011;57113;48.680;8.890;2023-04-25T10:01:48;1.42;;;0.60;;
26303;SDS011;57113;48.680;8.890;2023-04-25T10:04:17;1.23;;;0.80;;
26303;SDS011;57113;48.680;8.890;2023-04-25T10:06:48;0.85;;;0.55;;
26303;SDS011;57113;48.680;8.890;2023-04-25T10:09:15;0.88;;;0.60;;
26303;SDS011;57113;48.680;8.890;2023-04-25T10:11:43;1.05;;;0.90;;
26303;SDS011;57113;48.680;8.890;2023-04-25T10:14:16;0.85;;;0.50;;
26303;SDS011;57113;48.680;8.890;2023-04-25T10:16:43;1.73;;;0.82;;
26303;SDS011;57113;48.680;8.890;2023-04-25T10:19:10;1.45;;;0.68;;
26303;SDS011;57113;48.680;8.890;2023-04-25T10:21:36;1.02;;;0.60;;
26303;SDS011;57113;48.680;8.890;2023-04-25T10:24:09;2.15;;;0.50;;
26303;SDS011;57113;48.680;8.890;2023-04-25T10:26:35;1.17;;;0.60;;
26303;SDS011;57113;48.680;8.890;2023-04-25T10:29:02;4.82;;;0.57;;
26303;SDS011;57113;48.680;8.890;2023-04-25T10:31:31;0.75;;;0.38;;
26303;SDS011;57113;48.680;8.890;2023-04-25T10:33:57;0.90;;;0.50;;
26303;SDS011;57113;48.680;8.890;2023-04-25T10:36:24;1.27;;;0.50;;
26303;SDS011;57113;48.680;8.890;2023-04-25T10:38:52;1.40;;;0.57;;
26303;SDS011;57113;48.680;8.890;2023-04-25T10:41:19;0.55;;;0.38;;
26303;SDS011;57113;48.680;8.890;2023-04-25T10:43:46;1.77;;;0.40;;
26303;SDS011;57113;48.680;8.890;2023-04-25T10:48:48;1.23;;;0.50;;
26303;SDS011;57113;48.680;8.890;2023-04-25T10:51:18;0.80;;;0.47;;
26303;SDS011;57113;48.680;8.890;2023-04-25T10:53:44;0.50;;;0.40;;
26303;SDS011;57113;48.680;8.890;2023-04-25T10:56:17;1.05;;;0.55;;
26303;SDS011;57113;48.680;8.890;2023-04-25T11:01:44;0.77;;;0.50;;
26303;SDS011;57113;48.680;8.890;2023-04-25T11:04:30;0.82;;;0.52;;
26303;SDS011;57113;48.680;8.890;2023-04-25T11:09:51;0.80;;;0.57;;
26303;SDS011;57113;48.680;8.890;2023-04-25T11:12:17;0.47;;;0.32;;
26303;SDS011;57113;48.680;8.890;2023-04-25T11:14:43;0.57;;;0.40;;
26303;SDS011;57113;48.680;8.890;2023-04-25T11:17:08;1.10;;;0.57;;
26303;SDS011;57113;48.680;8.890;2023-04-25T11:19:36;0.60;;;0.40;;
26303;SDS011;57113;48.680;8.890;2023-04-25T11:22:02;0.95;;;0.63;;
26303;SDS011;57113;48.680;8.890;2023-04-25T11:24:32;1.02;;;0.50;;
26303;SDS011;57113;48.680;8.890;2023-04-25T11:27:02;1.05;;;0.60;;
26303;SDS011;57113;48.680;8.890;2023-04-25T11:29:32;1.70;;;0.68;;
26303;SDS011;57113;48.680;8.890;2023-04-25T11:31:59;1.65;;;0.50;;
26303;SDS011;57113;48.680;8.890;2023-04-25T11:34:26;1.17;;;0.63;;
26303;SDS011;57113;48.680;8.890;2023-04-25T11:36:55;0.85;;;0.52;;
26303;SDS011;57113;48.680;8.890;2023-04-25T11:39:21;1.88;;;0.60;;
26303;SDS011;57113;48.680;8.890;2023-04-25T11:41:48;0.80;;;0.80;;
26303;SDS011;57113;48.680;8.890;2023-04-25T11:44:18;0.98;;;0.73;;
26303;SDS011;57113;48.680;8.890;2023-04-25T11:46:44;1.13;;;0.80;;
26303;SDS011;57113;48.680;8.890;2023-04-25T11:49:10;1.42;;;1.10;;
26303;SDS011;57113;48.680;8.890;2023-04-25T11:51:43;1.10;;;1.00;;
26303;SDS011;57113;48.680;8.890;2023-04-25T11:56:37;1.30;;;0.90;;
26303;SDS011;57113;48.680;8.890;2023-04-25T11:59:06;2.67;;;1.27;;
26303;SDS011;57113;48.680;8.890;2023-04-25T12:01:32;1.50;;;1.10;;
26303;SDS011;57113;48.680;8.890;2023-04-25T12:06:42;3.10;;;1.30;;
26303;SDS011;57113;48.680;8.890;2023-04-25T12:09:09;1.95;;;1.30;;
26303;SDS011;57113;48.680;8.890;2023-04-25T12:11:42;1.40;;;1.20;;
26303;SDS011;57113;48.680;8.890;2023-04-25T12:14:10;1.70;;;1.37;;
26303;SDS011;57113;48.680;8.890;2023-04-25T12:16:42;2.00;;;1.50;;
26303;SDS011;57113;48.680;8.890;2023-04-25T12:19:08;1.98;;;1.40;;
26303;SDS011;57113;48.680;8.890;2023-04-25T12:21:35;2.00;;;1.50;;
26303;SDS011;57113;48.680;8.890;2023-04-25T12:24:16;4.30;;;1.38;;
26303;SDS011;57113;48.680;8.890;2023-04-25T12:29:19;2.80;;;1.42;;
26303;SDS011;57113;48.680;8.890;2023-04-25T12:31:46;1.30;;;1.15;;
26303;SDS011;57113;48.680;8.890;2023-04-25T12:34:12;3.03;;;1.17;;
26303;SDS011;57113;48.680;8.890;2023-04-25T12:36:38;2.60;;;1.60;;
26303;SDS011;57113;48.680;8.890;2023-04-25T12:39:04;2.05;;;1.40;;
26303;SDS011;57113;48.680;8.890;2023-04-25T12:41:30;1.92;;;1.48;;
26303;SDS011;57113;48.680;8.890;2023-04-25T12:43:55;1.45;;;1.30;;
26303;SDS011;57113;48.680;8.890;2023-04-25T12:46:21;1.38;;;1.25;;
26303;SDS011;57113;48.680;8.890;2023-04-25T12:48:48;1.65;;;1.30;;
26303;SDS011;57113;48.680;8.890;2023-04-25T12:51:13;1.90;;;1.20;;
26303;SDS011;57113;48.680;8.890;2023-04-25T12:53:39;1.70;;;1.20;;
26303;SDS011;57113;48.680;8.890;2023-04-25T12:56:06;2.03;;;1.50;;
26303;SDS011;57113;48.680;8.890;2023-04-25T12:58:35;2.47;;;1.98;;
26303;SDS011;57113;48.680;8.890;2023-04-25T13:01:00;2.00;;;1.33;;
26303;SDS011;57113;48.680;8.890;2023-04-25T13:03:26;2.88;;;1.90;;
26303;SDS011;57113;48.680;8.890;2023-04-25T13:05:52;2.47;;;1.50;;
26303;SDS011;57113;48.680;8.890;2023-04-25T13:08:20;2.67;;;1.70;;
26303;SDS011;57113;48.680;8.890;2023-04-25T13:10:49;2.45;;;1.40;;
26303;SDS011;57113;48.680;8.890;2023-04-25T13:13:15;1.88;;;1.50;;
26303;SDS011;57113;48.680;8.890;2023-04-25T13:15:41;2.10;;;1.50;;
26303;SDS011;57113;48.680;8.890;2023-04-25T13:18:07;1.75;;;1.52;;
26303;SDS011;57113;48.680;8.890;2023-04-25T13:20:32;2.83;;;1.38;;
26303;SDS011;57113;48.680;8.890;2023-04-25T13:22:58;1.50;;;1.30;;
26303;SDS011;57113;48.680;8.890;2023-04-25T13:25:24;1.88;;;1.38;;
26303;SDS011;57113;48.680;8.890;2023-04-25T13:27:50;1.50;;;1.40;;
26303;SDS011;57113;48.680;8.890;2023-04-25T13:30:15;1.52;;;1.35;;
26303;SDS011;57113;48.680;8.890;2023-04-25T13:32:41;1.92;;;1.40;;
26303;SDS011;57113;48.680;8.890;2023-04-25T13:35:09;1.50;;;1.38;;
26303;SDS011;57113;48.680;8.890;2023-04-25T13:37:36;3.25;;;1.83;;
26303;SDS011;57113;48.680;8.890;2023-04-25T13:40:05;4.07;;;1.80;;
26303;SDS011;57113;48.680;8.890;2023-04-25T13:42:34;2.92;;;1.73;;
26303;SDS011;57113;48.680;8.890;2023-04-25T13:45:00;2.58;;;2.13;;
26303;SDS011;57113;48.680;8.890;2023-04-25T13:47:26;3.45;;;2.10;;
26303;SDS011;57113;48.680;8.890;2023-04-25T13:49:52;3.25;;;2.03;;
26303;SDS011;57113;48.680;8.890;2023-04-25T13:52:18;2.30;;;2.10;;
26303;SDS011;57113;48.680;8.890;2023-04-25T13:54:44;2.80;;;2.20;;
26303;SDS011;57113;48.680;8.890;2023-04-25T13:57:09;3.97;;;2.65;;
26303;SDS011;57113;48.680;8.890;2023-04-25T13:59:36;3.63;;;2.10;;
26303;SDS011;57113;48.680;8.890;2023-04-25T14:02:02;2.78;;;1.90;;
26303;SDS011;57113;48.680;8.890;2023-04-25T14:04:28;2.55;;;2.10;;
26303;SDS011;57113;48.680;8.890;2023-04-25T14:06:53;3.42;;;2.25;;
26303;SDS011;57113;48.680;8.890;2023-04-25T14:09:20;2.60;;;2.17;;
26303;SDS011;57113;48.680;8.890;2023-04-25T14:11:50;2.90;;;2.28;;
26303;SDS011;57113;48.680;8.890;2023-04-25T14:14:17;3.20;;;2.40;;
26303;SDS011;57113;48.680;8.890;2023-04-25T14:16:43;2.92;;;2.30;;
26303;SDS011;57113;48.680;8.890;2023-04-25T14:19:09;4.60;;;2.13;;
26303;SDS011;57113;48.680;8.890;2023-04-25T14:21:34;3.60;;;2.45;;
26303;SDS011;57113;48.680;8.890;2023-04-25T14:24:00;3.47;;;2.08;;
26303;SDS011;57113;48.680;8.890;2023-04-25T14:26:26;2.13;;;1.90;;
26303;SDS011;57113;48.680;8.890;2023-04-25T14:28:51;2.80;;;2.50;;
26303;SDS011;57113;48.680;8.890;2023-04-25T14:31:17;2.40;;;2.20;;
26303;SDS011;57113;48.680;8.890;2023-04-25T14:33:43;3.05;;;2.08;;
26303;SDS011;57113;48.680;8.890;2023-04-25T14:36:09;2.17;;;1.98;;
26303;SDS011;57113;48.680;8.890;2023-04-25T14:38:35;2.65;;;2.00;;
26303;SDS011;57113;48.680;8.890;2023-04-25T14:41:00;2.15;;;1.70;;
26303;SDS011;57113;48.680;8.890;2023-04-25T14:43:26;2.13;;;1.92;;
26303;SDS011;57113;48.680;8.890;2023-04-25T14:45:52;2.13;;;1.70;;
26303;SDS011;57113;48.680;8.890;2023-04-25T14:48:18;1.88;;;1.65;;
26303;SDS011;57113;48.680;8.890;2023-04-25T14:50:44;3.33;;;2.42;;
26303;SDS011;57113;48.680;8.890;2023-04-25T14:53:11;2.47;;;1.85;;
26303;SDS011;57113;48.680;8.890;2023-04-25T14:55:37;2.65;;;1.65;;
26303;SDS011;57113;48.680;8.890;2023-04-25T14:58:03;1.90;;;1.67;;
26303;SDS011;57113;48.680;8.890;2023-04-25T15:00:28;1.98;;;1.77;;
26303;SDS011;57113;48.680;8.890;2023-04-25T15:02:56;1.98;;;1.70;;
26303;SDS011;57113;48.680;8.890;2023-04-25T15:05:23;3.55;;;1.63;;
26303;SDS011;57113;48.680;8.890;2023-04-25T15:07:48;2.30;;;1.63;;